<?xml version="1.0" encoding="UTF-8" ?>
<gpx version="1.1" xmlns:xsi="http://www.w3.org/2001/XMLSchema-instance" 
    xmlns="http://www.topografix.com/GPX/1/1" 
    xsi:schemaLocation="http://www.topografix.com/GPX/1/1 http://www.topografix.com/GPX/1/1/gpx.xsd" 
    creator="Openrunner - https://www.openrunner.com" >	<trk>
						<name>11209968-Balade Verte - Sentier des Mares - LO2</name>
						<trkseg>
					<trkpt lat="46.628160" lon="5.219310">
						<ele>177</ele>
						<time>2020-04-17T13:24:21Z</time>
					</trkpt>
					<trkpt lat="46.628060" lon="5.219150">
						<ele>176</ele>
						<time>2020-04-17T13:24:41Z</time>
					</trkpt>
					<trkpt lat="46.627970" lon="5.219110">
						<ele>177</ele>
						<time>2020-04-17T13:24:53Z</time>
					</trkpt>
					<trkpt lat="46.627270" lon="5.218910">
						<ele>178</ele>
						<time>2020-04-17T13:26:29Z</time>
					</trkpt>
					<trkpt lat="46.627200" lon="5.218860">
						<ele>178</ele>
						<time>2020-04-17T13:26:39Z</time>
					</trkpt>
					<trkpt lat="46.627130" lon="5.218790">
						<ele>178</ele>
						<time>2020-04-17T13:26:50Z</time>
					</trkpt>
					<trkpt lat="46.626850" lon="5.218350">
						<ele>178</ele>
						<time>2020-04-17T13:27:45Z</time>
					</trkpt>
					<trkpt lat="46.626780" lon="5.218170">
						<ele>177</ele>
						<time>2020-04-17T13:28:04Z</time>
					</trkpt>
					<trkpt lat="46.626710" lon="5.218080">
						<ele>177</ele>
						<time>2020-04-17T13:28:17Z</time>
					</trkpt>
					<trkpt lat="46.626660" lon="5.218020">
						<ele>177</ele>
						<time>2020-04-17T13:28:25Z</time>
					</trkpt>
					<trkpt lat="46.626580" lon="5.217980">
						<ele>177</ele>
						<time>2020-04-17T13:28:37Z</time>
					</trkpt>
					<trkpt lat="46.626520" lon="5.217960">
						<ele>177</ele>
						<time>2020-04-17T13:28:45Z</time>
					</trkpt>
					<trkpt lat="46.626450" lon="5.217940">
						<ele>177</ele>
						<time>2020-04-17T13:28:54Z</time>
					</trkpt>
					<trkpt lat="46.626390" lon="5.217920">
						<ele>177</ele>
						<time>2020-04-17T13:29:03Z</time>
					</trkpt>
					<trkpt lat="46.626310" lon="5.217930">
						<ele>176</ele>
						<time>2020-04-17T13:29:13Z</time>
					</trkpt>
					<trkpt lat="46.626200" lon="5.217940">
						<ele>176</ele>
						<time>2020-04-17T13:29:28Z</time>
					</trkpt>
					<trkpt lat="46.626090" lon="5.218020">
						<ele>176</ele>
						<time>2020-04-17T13:29:44Z</time>
					</trkpt>
					<trkpt lat="46.625760" lon="5.218300">
						<ele>175</ele>
						<time>2020-04-17T13:30:35Z</time>
					</trkpt>
					<trkpt lat="46.624860" lon="5.219230">
						<ele>175</ele>
						<time>2020-04-17T13:33:03Z</time>
					</trkpt>
					<trkpt lat="46.624610" lon="5.219400">
						<ele>176</ele>
						<time>2020-04-17T13:33:39Z</time>
					</trkpt>
					<trkpt lat="46.624610" lon="5.219590">
						<ele>176</ele>
						<time>2020-04-17T13:33:57Z</time>
					</trkpt>
					<trkpt lat="46.624590" lon="5.219650">
						<ele>177</ele>
						<time>2020-04-17T13:34:03Z</time>
					</trkpt>
					<trkpt lat="46.624510" lon="5.219650">
						<ele>177</ele>
						<time>2020-04-17T13:34:14Z</time>
					</trkpt>
					<trkpt lat="46.624260" lon="5.219670">
						<ele>177</ele>
						<time>2020-04-17T13:34:47Z</time>
					</trkpt>
					<trkpt lat="46.624140" lon="5.219710">
						<ele>177</ele>
						<time>2020-04-17T13:35:04Z</time>
					</trkpt>
					<trkpt lat="46.624090" lon="5.219770">
						<ele>177</ele>
						<time>2020-04-17T13:35:12Z</time>
					</trkpt>
					<trkpt lat="46.624020" lon="5.220130">
						<ele>177</ele>
						<time>2020-04-17T13:35:46Z</time>
					</trkpt>
					<trkpt lat="46.623950" lon="5.220340">
						<ele>177</ele>
						<time>2020-04-17T13:36:08Z</time>
					</trkpt>
					<trkpt lat="46.623850" lon="5.220340">
						<ele>177</ele>
						<time>2020-04-17T13:36:21Z</time>
					</trkpt>
					<trkpt lat="46.623790" lon="5.220220">
						<ele>177</ele>
						<time>2020-04-17T13:36:35Z</time>
					</trkpt>
					<trkpt lat="46.623740" lon="5.220080">
						<ele>177</ele>
						<time>2020-04-17T13:36:49Z</time>
					</trkpt>
					<trkpt lat="46.623610" lon="5.219440">
						<ele>176</ele>
						<time>2020-04-17T13:37:50Z</time>
					</trkpt>
					<trkpt lat="46.623540" lon="5.219240">
						<ele>176</ele>
						<time>2020-04-17T13:38:11Z</time>
					</trkpt>
					<trkpt lat="46.623490" lon="5.219140">
						<ele>175</ele>
						<time>2020-04-17T13:38:22Z</time>
					</trkpt>
					<trkpt lat="46.623320" lon="5.218860">
						<ele>175</ele>
						<time>2020-04-17T13:38:57Z</time>
					</trkpt>
					<trkpt lat="46.623260" lon="5.218770">
						<ele>176</ele>
						<time>2020-04-17T13:39:08Z</time>
					</trkpt>
					<trkpt lat="46.623190" lon="5.218680">
						<ele>176</ele>
						<time>2020-04-17T13:39:21Z</time>
					</trkpt>
					<trkpt lat="46.623050" lon="5.218620">
						<ele>176</ele>
						<time>2020-04-17T13:39:40Z</time>
					</trkpt>
					<trkpt lat="46.622990" lon="5.218620">
						<ele>177</ele>
						<time>2020-04-17T13:39:48Z</time>
					</trkpt>
					<trkpt lat="46.622920" lon="5.218560">
						<ele>177</ele>
						<time>2020-04-17T13:39:59Z</time>
					</trkpt>
					<trkpt lat="46.622610" lon="5.218530">
						<ele>178</ele>
						<time>2020-04-17T13:40:40Z</time>
					</trkpt>
					<trkpt lat="46.622550" lon="5.218550">
						<ele>178</ele>
						<time>2020-04-17T13:40:49Z</time>
					</trkpt>
					<trkpt lat="46.622460" lon="5.218600">
						<ele>178</ele>
						<time>2020-04-17T13:41:01Z</time>
					</trkpt>
					<trkpt lat="46.622330" lon="5.218720">
						<ele>178</ele>
						<time>2020-04-17T13:41:22Z</time>
					</trkpt>
					<trkpt lat="46.622210" lon="5.218870">
						<ele>177</ele>
						<time>2020-04-17T13:41:43Z</time>
					</trkpt>
					<trkpt lat="46.622130" lon="5.219040">
						<ele>177</ele>
						<time>2020-04-17T13:42:02Z</time>
					</trkpt>
					<trkpt lat="46.622050" lon="5.219270">
						<ele>177</ele>
						<time>2020-04-17T13:42:26Z</time>
					</trkpt>
					<trkpt lat="46.622040" lon="5.219420">
						<ele>177</ele>
						<time>2020-04-17T13:42:39Z</time>
					</trkpt>
					<trkpt lat="46.622030" lon="5.219640">
						<ele>177</ele>
						<time>2020-04-17T13:43:00Z</time>
					</trkpt>
					<trkpt lat="46.622050" lon="5.219930">
						<ele>177</ele>
						<time>2020-04-17T13:43:26Z</time>
					</trkpt>
					<trkpt lat="46.622080" lon="5.220150">
						<ele>176</ele>
						<time>2020-04-17T13:43:47Z</time>
					</trkpt>
					<trkpt lat="46.622060" lon="5.220490">
						<ele>176</ele>
						<time>2020-04-17T13:44:18Z</time>
					</trkpt>
					<trkpt lat="46.622080" lon="5.220630">
						<ele>176</ele>
						<time>2020-04-17T13:44:31Z</time>
					</trkpt>
					<trkpt lat="46.622710" lon="5.221960">
						<ele>174</ele>
						<time>2020-04-17T13:46:59Z</time>
					</trkpt>
					<trkpt lat="46.622840" lon="5.222050">
						<ele>175</ele>
						<time>2020-04-17T13:47:19Z</time>
					</trkpt>
					<trkpt lat="46.622920" lon="5.222290">
						<ele>175</ele>
						<time>2020-04-17T13:47:43Z</time>
					</trkpt>
					<trkpt lat="46.622860" lon="5.222380">
						<ele>175</ele>
						<time>2020-04-17T13:47:54Z</time>
					</trkpt>
					<trkpt lat="46.622750" lon="5.222490">
						<ele>175</ele>
						<time>2020-04-17T13:48:12Z</time>
					</trkpt>
					<trkpt lat="46.622600" lon="5.222510">
						<ele>175</ele>
						<time>2020-04-17T13:48:32Z</time>
					</trkpt>
					<trkpt lat="46.622500" lon="5.222520">
						<ele>175</ele>
						<time>2020-04-17T13:48:46Z</time>
					</trkpt>
					<trkpt lat="46.622220" lon="5.222660">
						<ele>176</ele>
						<time>2020-04-17T13:49:25Z</time>
					</trkpt>
					<trkpt lat="46.622160" lon="5.222790">
						<ele>176</ele>
						<time>2020-04-17T13:49:40Z</time>
					</trkpt>
					<trkpt lat="46.622100" lon="5.222830">
						<ele>176</ele>
						<time>2020-04-17T13:49:48Z</time>
					</trkpt>
					<trkpt lat="46.622040" lon="5.222860">
						<ele>176</ele>
						<time>2020-04-17T13:49:57Z</time>
					</trkpt>
					<trkpt lat="46.621980" lon="5.222940">
						<ele>176</ele>
						<time>2020-04-17T13:50:08Z</time>
					</trkpt>
					<trkpt lat="46.621980" lon="5.223000">
						<ele>176</ele>
						<time>2020-04-17T13:50:13Z</time>
					</trkpt>
					<trkpt lat="46.622000" lon="5.223110">
						<ele>177</ele>
						<time>2020-04-17T13:50:24Z</time>
					</trkpt>
					<trkpt lat="46.622010" lon="5.223170">
						<ele>177</ele>
						<time>2020-04-17T13:50:29Z</time>
					</trkpt>
					<trkpt lat="46.623280" lon="5.222920">
						<ele>176</ele>
						<time>2020-04-17T13:53:20Z</time>
					</trkpt>
					<trkpt lat="46.623500" lon="5.222870">
						<ele>177</ele>
						<time>2020-04-17T13:53:50Z</time>
					</trkpt>
					<trkpt lat="46.624510" lon="5.222500">
						<ele>177</ele>
						<time>2020-04-17T13:56:09Z</time>
					</trkpt>
					<trkpt lat="46.624860" lon="5.222380">
						<ele>177</ele>
						<time>2020-04-17T13:56:57Z</time>
					</trkpt>
					<trkpt lat="46.626200" lon="5.221630">
						<ele>178</ele>
						<time>2020-04-17T14:00:09Z</time>
					</trkpt>
					<trkpt lat="46.626160" lon="5.221460">
						<ele>178</ele>
						<time>2020-04-17T14:00:25Z</time>
					</trkpt>
					<trkpt lat="46.626140" lon="5.221210">
						<ele>178</ele>
						<time>2020-04-17T14:00:48Z</time>
					</trkpt>
					<trkpt lat="46.626180" lon="5.220950">
						<ele>177</ele>
						<time>2020-04-17T14:01:13Z</time>
					</trkpt>
					<trkpt lat="46.626260" lon="5.220740">
						<ele>177</ele>
						<time>2020-04-17T14:01:35Z</time>
					</trkpt>
					<trkpt lat="46.628160" lon="5.219310">
						<ele>177</ele>
						<time>2020-04-17T14:06:20Z</time>
					</trkpt>
					<trkpt lat="46.628160" lon="5.219310">
						<ele>177</ele>
						<time>2020-04-17T14:06:20Z</time>
					</trkpt>
					</trkseg>
				</trk>
			</gpx>